createdAt,value
2019-05-10T00:04:13.292Z,12.90
2019-05-10T00:09:28.343Z,12.80
2019-05-10T00:14:52.552Z,12.80
2019-05-10T00:20:08.817Z,12.80
2019-05-10T00:25:24.657Z,12.80
2019-05-10T00:30:40.239Z,12.80
2019-05-10T00:35:55.665Z,12.70
2019-05-10T00:41:11.282Z,12.70
2019-05-10T00:46:26.892Z,12.70
2019-05-10T00:51:42.705Z,12.70
2019-05-10T00:56:58.418Z,12.60
2019-05-10T01:02:14.516Z,12.60
2019-05-10T01:07:30.396Z,12.60
2019-05-10T01:12:46.275Z,12.60
2019-05-10T01:18:02.364Z,12.60
2019-05-10T01:23:18.333Z,12.50
2019-05-10T01:28:33.756Z,12.50
2019-05-10T01:33:49.744Z,12.50
2019-05-10T01:39:07.066Z,12.50
2019-05-10T01:44:22.991Z,12.50
2019-05-10T01:49:38.427Z,12.50
2019-05-10T01:54:54.395Z,12.40
2019-05-10T02:00:11.647Z,12.40
2019-05-10T02:05:27.418Z,12.40
2019-05-10T02:10:43.365Z,12.40
2019-05-10T02:15:59.268Z,12.40
2019-05-10T02:21:15.392Z,12.30
2019-05-10T02:26:32.518Z,12.30
2019-05-10T02:31:48.112Z,12.30
2019-05-10T02:37:03.815Z,12.30
2019-05-10T02:42:19.204Z,12.30
2019-05-10T02:47:35.086Z,12.30
2019-05-10T02:52:51.255Z,12.20
2019-05-10T02:58:06.953Z,12.20
2019-05-10T03:03:26.190Z,12.20
2019-05-10T03:08:52.987Z,12.20
2019-05-10T03:14:12.795Z,12.20
2019-05-10T03:19:31.425Z,12.10
2019-05-10T03:24:47.053Z,12.10
2019-05-10T03:30:03.099Z,12.10
2019-05-10T03:35:19.222Z,12.10
2019-05-10T03:40:35.362Z,12.10
2019-05-10T03:45:51.390Z,12.00
2019-05-10T03:51:07.247Z,12.00
2019-05-10T03:56:22.782Z,12.00
2019-05-10T04:01:38.428Z,12.00
2019-05-10T04:06:54.126Z,12.00
2019-05-10T04:12:09.834Z,12.00
2019-05-10T04:17:26.067Z,12.00
2019-05-10T04:22:41.718Z,12.00
2019-05-10T04:27:57.338Z,11.90
2019-05-10T04:33:12.870Z,11.90
2019-05-10T04:38:28.416Z,11.90
2019-05-10T04:43:44.209Z,11.90
2019-05-10T04:49:00.361Z,11.90
2019-05-10T04:54:16.121Z,11.90
2019-05-10T04:59:31.545Z,11.90
2019-05-10T05:04:47.097Z,11.90
2019-05-10T05:10:02.951Z,11.80
2019-05-10T05:15:19.094Z,11.80
2019-05-10T05:20:34.950Z,11.80
2019-05-10T05:25:51.100Z,11.80
2019-05-10T05:31:06.610Z,11.80
2019-05-10T05:36:22.371Z,11.80
2019-05-10T05:41:47.577Z,11.80
2019-05-10T05:46:55.776Z,11.80
2019-05-10T05:52:11.981Z,11.80
2019-05-10T05:57:29.660Z,11.80
2019-05-10T06:02:46.736Z,11.80
2019-05-10T06:08:02.892Z,11.80
2019-05-10T06:13:23.394Z,11.80
2019-05-10T06:18:36.406Z,11.80
2019-05-10T06:23:52.022Z,11.80
2019-05-10T06:29:16.445Z,11.80
2019-05-10T06:34:25.178Z,11.80
2019-05-10T06:39:41.140Z,11.80
2019-05-10T06:44:56.931Z,11.80
2019-05-10T06:50:14.419Z,11.80
2019-05-10T06:55:30.800Z,11.80
2019-05-10T07:00:47.529Z,11.80
2019-05-10T07:06:06.195Z,11.80
2019-05-10T07:11:22.598Z,11.90
2019-05-10T07:16:38.338Z,11.90
2019-05-10T07:21:56.784Z,11.90
2019-05-10T07:27:14.994Z,11.90
2019-05-10T07:32:31.353Z,11.90
2019-05-10T07:37:51.388Z,12.00
2019-05-10T07:43:06.622Z,12.00
2019-05-10T07:48:23.386Z,12.10
2019-05-10T07:53:41.221Z,12.10
2019-05-10T07:59:00.551Z,12.10
2019-05-10T08:04:19.829Z,12.20
2019-05-10T08:09:37.122Z,12.20
2019-05-10T08:14:53.609Z,12.30
2019-05-10T08:20:25.663Z,12.20
2019-05-10T08:25:36.382Z,12.30
2019-05-10T08:30:58.186Z,12.40
2019-05-10T08:36:08.175Z,12.40
2019-05-10T08:41:34.882Z,12.40
2019-05-10T08:46:52.430Z,12.50
2019-05-10T08:52:08.001Z,12.60
2019-05-10T08:57:23.760Z,12.60
2019-05-10T09:02:39.717Z,12.70
2019-05-10T09:07:57.767Z,12.90
2019-05-10T09:13:14.975Z,13.10
2019-05-10T09:18:33.161Z,13.10
2019-05-10T09:23:53.024Z,13.20
2019-05-10T09:29:06.744Z,13.30
2019-05-10T09:34:25.925Z,13.40
2019-05-10T09:39:42.335Z,13.50
2019-05-10T09:44:57.873Z,13.60
2019-05-10T09:50:14.274Z,13.70
2019-05-10T09:55:30.014Z,13.70
2019-05-10T10:00:48.344Z,13.90
2019-05-10T10:06:07.833Z,14.00
2019-05-10T10:11:20.827Z,14.20
2019-05-10T10:16:36.600Z,14.30
2019-05-10T10:21:52.473Z,14.40
2019-05-10T10:27:08.495Z,14.50
2019-05-10T10:32:24.611Z,14.50
2019-05-10T10:37:41.575Z,14.60
2019-05-10T10:42:57.908Z,14.70
2019-05-10T10:48:13.769Z,14.70
2019-05-10T10:53:29.648Z,14.70
2019-05-10T10:58:49.647Z,14.70
2019-05-10T11:04:08.095Z,14.60
2019-05-10T11:09:21.935Z,14.70
2019-05-10T11:14:40.019Z,14.70
2019-05-10T11:19:55.886Z,14.80
2019-05-10T11:25:12.968Z,14.90
2019-05-10T11:30:29.381Z,15.10
2019-05-10T11:35:44.938Z,15.40
2019-05-10T11:41:01.944Z,15.70
2019-05-10T11:46:20.854Z,16.00
2019-05-10T11:51:36.233Z,16.20
2019-05-10T11:56:52.357Z,16.30
2019-05-10T12:02:10.514Z,16.40
2019-05-10T12:07:35.357Z,16.50
2019-05-10T12:12:59.766Z,16.50
2019-05-10T12:18:04.745Z,16.50
2019-05-10T12:23:31.507Z,16.50
2019-05-10T12:28:53.072Z,16.50
2019-05-10T12:34:13.106Z,16.50
2019-05-10T12:39:26.367Z,16.50
2019-05-10T12:44:44.015Z,16.60
2019-05-10T12:50:01.962Z,16.50
2019-05-10T12:55:18.640Z,16.50
2019-05-10T13:00:34.396Z,16.60
2019-05-10T13:05:52.900Z,16.90
2019-05-10T13:11:07.532Z,16.80
2019-05-10T13:16:23.088Z,16.90
2019-05-10T13:21:38.976Z,17.20
2019-05-10T13:26:54.775Z,16.90
2019-05-10T13:32:14.764Z,16.80
2019-05-10T13:37:29.117Z,16.60
2019-05-10T13:42:46.000Z,17.00
2019-05-10T13:48:02.195Z,17.20
2019-05-10T13:53:20.876Z,17.40
2019-05-10T13:58:36.619Z,17.50
2019-05-10T14:04:00.124Z,17.20
2019-05-10T14:09:12.170Z,17.10
2019-05-10T14:14:28.167Z,16.90
2019-05-10T14:19:48.375Z,17.00
2019-05-10T14:25:04.342Z,17.00
2019-05-10T14:30:20.793Z,17.00
2019-05-10T14:35:36.491Z,17.10
2019-05-10T14:40:52.580Z,16.90
2019-05-10T14:46:13.762Z,17.00
2019-05-10T14:51:40.380Z,17.20
2019-05-10T14:56:44.869Z,17.40
2019-05-10T15:02:00.669Z,17.30
2019-05-10T15:07:16.773Z,17.10
2019-05-10T15:12:33.467Z,17.10
2019-05-10T15:17:55.229Z,17.00
2019-05-10T15:23:07.017Z,17.10
2019-05-10T15:28:22.794Z,17.20
2019-05-10T15:33:38.842Z,17.30
2019-05-10T15:38:54.896Z,17.30
2019-05-10T15:44:11.975Z,17.40
2019-05-10T15:49:27.668Z,17.70
2019-05-10T15:54:44.495Z,17.50
2019-05-10T16:00:01.340Z,17.60
2019-05-10T16:05:29.321Z,17.50
2019-05-10T16:10:39.337Z,17.60
2019-05-10T16:15:57.523Z,17.60
2019-05-10T16:21:15.293Z,17.80
2019-05-10T16:26:27.684Z,18.20
2019-05-10T16:31:43.649Z,18.50
2019-05-10T16:37:00.646Z,18.70
2019-05-10T16:42:16.841Z,18.90
2019-05-10T16:47:34.096Z,19.10
2019-05-10T16:52:50.420Z,19.10
2019-05-10T16:58:09.503Z,19.10
2019-05-10T17:03:24.529Z,19.00
2019-05-10T17:08:40.268Z,18.90
2019-05-10T17:13:56.021Z,18.80
2019-05-10T17:19:27.805Z,18.60
2019-05-10T17:24:41.834Z,18.70
2019-05-10T17:29:57.516Z,19.20
2019-05-10T17:35:13.112Z,19.80
2019-05-10T17:40:29.214Z,20.30
2019-05-10T17:45:50.840Z,20.80
2019-05-10T17:51:15.308Z,21.20
2019-05-10T18:01:59.652Z,21.90
2019-05-10T18:07:26.438Z,22.20
2019-05-10T18:12:42.113Z,22.40
2019-05-10T18:18:02.729Z,22.60
2019-05-10T18:23:21.268Z,22.70
2019-05-10T18:28:34.478Z,22.80
2019-05-10T18:33:54.635Z,22.90
2019-05-10T18:39:15.704Z,22.90
2019-05-10T18:44:30.609Z,22.90
2019-05-10T18:49:46.378Z,23.00
2019-05-10T18:55:02.205Z,23.00
2019-05-10T19:00:23.165Z,23.00
2019-05-10T19:05:36.856Z,22.90
2019-05-10T19:10:53.230Z,22.90
2019-05-10T19:16:09.036Z,22.90
2019-05-10T19:21:24.985Z,22.90
2019-05-10T19:26:42.999Z,22.80
2019-05-10T19:31:59.277Z,22.80
2019-05-10T19:37:28.325Z,22.70
2019-05-10T19:42:37.345Z,22.70
2019-05-10T19:47:55.749Z,22.60
2019-05-10T19:53:09.860Z,22.50
2019-05-10T19:58:26.361Z,22.40
2019-05-10T20:03:43.223Z,22.40
2019-05-10T20:08:59.226Z,22.30
2019-05-10T20:14:19.185Z,22.20
2019-05-10T20:19:35.292Z,22.10
2019-05-10T20:24:53.049Z,22.10
2019-05-10T20:30:09.272Z,22.00
2019-05-10T20:35:25.044Z,21.90
2019-05-10T20:40:41.678Z,21.90
2019-05-10T20:45:57.491Z,21.80
2019-05-10T20:51:13.350Z,21.80
2019-05-10T20:56:29.016Z,21.70
2019-05-10T21:01:44.762Z,21.60
2019-05-10T21:07:00.621Z,21.50
2019-05-10T21:12:17.354Z,21.50
2019-05-10T21:17:33.358Z,21.40
2019-05-10T21:22:53.596Z,21.30
2019-05-10T21:28:12.834Z,21.20
2019-05-10T21:33:28.836Z,21.20
2019-05-10T21:38:45.103Z,21.10
2019-05-10T21:44:01.211Z,21.10
2019-05-10T21:49:17.337Z,21.00
2019-05-10T21:54:50.744Z,20.90
2019-05-10T22:00:10.246Z,20.80
2019-05-10T22:05:27.695Z,20.80
2019-05-10T22:10:45.092Z,20.70
2019-05-10T22:16:01.211Z,20.70
2019-05-10T22:21:16.972Z,20.60
2019-05-10T22:26:32.887Z,20.50
2019-05-10T22:31:48.363Z,20.50
2019-05-10T22:37:05.804Z,20.40
2019-05-10T22:42:23.315Z,20.40
2019-05-10T22:47:39.191Z,20.30
2019-05-10T22:52:54.964Z,20.20
2019-05-10T22:58:10.583Z,20.10
2019-05-10T23:03:26.418Z,20.10
2019-05-10T23:08:42.208Z,20.00
2019-05-10T23:13:57.964Z,20.00
2019-05-10T23:19:13.730Z,19.90
2019-05-10T23:24:41.787Z,19.80
2019-05-10T23:29:57.686Z,19.80
2019-05-10T23:35:16.954Z,19.70
2019-05-10T23:40:32.703Z,19.70
2019-05-10T23:45:51.809Z,19.60
2019-05-10T23:51:07.876Z,19.50
2019-05-10T23:56:23.424Z,19.50
